Time;durP1;ratioP1;P1;durP2;ratioP2;P2;SDS_P1;SDS_P2;PMS_P1;PMS_P2;Temp;Humidity;BMP_temperature;BMP_pressure;BME280_temperature;BME280_humidity;BME280_pressure;Samples;Min_cycle;Max_cycle;Signal;HPM_P1;HPM_P2
2021/07/18 08:00:18;;;;;;;;;;;;;;;;;;2131862;27;1469;-76
2021/07/18 08:01:19;;;;;;;;;;;;;;;;;;2131886;27;948;-76
2021/07/18 08:02:20;;;;;;;;;;;;;;;;;;2131870;27;893;-76
2021/07/18 08:03:21;;;;;;;;;;;;;;;;;;2131847;27;771;-76
2021/07/18 08:04:22;;;;;;;;;;;;;;;;;;2131501;27;1309;-77
2021/07/18 08:05:23;;;;;;;;;;;;;;;;;;2122682;28;1263;-76
2021/07/18 08:06:24;;;;;;;;;;;;;;;;;;2122585;28;802;-77
2021/07/18 08:07:25;;;;;;;;;;;;;;;;;;2123214;27;897;-77
2021/07/18 08:08:27;;;;;;;;;;;;;;;;;;2122550;28;1339;-77
2021/07/18 08:09:28;;;;;;;;;;;;;;;;;;2122726;28;940;-76
2021/07/18 08:10:29;;;;;;;;;;;;;;;;;;2123232;28;886;-77
2021/07/18 08:11:30;;;;;;;;;;;;;;;;;;2123258;28;791;-76
2021/07/18 08:12:31;;;;;;;;;;;;;;;;;;2123140;28;1056;-76
2021/07/18 08:13:32;;;;;;;;;;;;;;;;;;2123337;28;870;-76
2021/07/18 08:14:35;;;;;;;;;;;;;;;;;;2123096;27;1206;-76
2021/07/18 08:15:37;;;;;;;;;;;;;;;;;;2123268;28;881;-77
2021/07/18 08:16:39;;;;;;;;;;;;;;;;;;2123409;27;798;-76
2021/07/18 08:17:40;;;;;;;;;;;;;;;;;;2122855;28;967;-76
2021/07/18 08:18:41;;;;;;;;;;;;;;;;;;2123040;28;898;-76
2021/07/18 08:19:42;;;;;;;;;;;;;;;;;;2123070;28;1970;-77
2021/07/18 08:20:44;;;;;;;;;;;;;;;;;;2123210;28;881;-77
2021/07/18 08:21:44;;;;;;;;;;;;;;;;;;2123214;28;898;-77
2021/07/18 08:22:46;;;;;;;;;;;;;;;;;;2123226;28;870;-76
2021/07/18 08:23:49;;;;;;;;;;;;;;;;;;2123102;28;909;-76
2021/07/18 08:24:51;;;;;;;;;;;;;;;;;;2122966;27;1233;-76
2021/07/18 08:25:51;;;;;;;;;;;;;;;;;;2123058;28;930;-76
2021/07/18 08:26:54;;;;;;;;;;;;;;;;;;2123086;28;893;-76
2021/07/18 08:27:54;;;;;;;;;;;;;;;;;;2123155;28;822;-76
2021/07/18 08:28:56;;;;;;;;;;;;;;;;;;2123099;28;917;-77
2021/07/18 08:29:56;;;;;;;;;;;;;;;;;;2123088;28;795;-76
2021/07/18 08:30:59;;;;;;;;;;;;;;;;;;2123114;28;897;-76
2021/07/18 08:32:00;;;;;;;;;;;;;;;;;;2123061;28;619;-76
2021/07/18 08:33:02;;;;;;;;;;;;;;;;;;2123180;28;846;-77
2021/07/18 08:34:02;;;;;;;;;;;;;;;;;;2123102;28;957;-77
2021/07/18 08:35:04;;;;;;;;;;;;;;;;;;2122906;27;1319;-77
2021/07/18 08:36:05;;;;;;;;;;;;;;;;;;2122944;28;1012;-78
2021/07/18 08:37:06;;;;;;;;;;;;;;;;;;2122964;28;890;-76
2021/07/18 08:38:07;;;;;;;;;;;;;;;;;;2123007;28;956;-77
2021/07/18 08:39:08;;;;;;;;;;;;;;;;;;2122237;28;1614;-77
2021/07/18 08:40:10;;;;;;;;;;;;;;;;;;2122284;28;1964;-76
2021/07/18 08:41:12;;;;;;;;;;;;;;;;;;2122953;28;957;-77
2021/07/18 08:42:13;;;;;;;;;;;;;;;;;;2122259;28;1170;-76
2021/07/18 08:43:14;;;;;;;;;;;;;;;;;;2122434;28;885;-77
2021/07/18 08:44:15;;;;;;;;;;;;;;;;;;2123049;28;803;-77
2021/07/18 08:45:16;;;;;;;;;;;;;;;;;;2122770;27;1231;-78
2021/07/18 08:46:20;;;;;;;;;;;;;;;;;;2122882;28;881;-77
2021/07/18 08:47:21;;;;;;;;;;;;;;;;;;2122920;28;975;-77
2021/07/18 08:48:22;;;;;;;;;;;;;;;;;;2122347;28;1285;-77
2021/07/18 08:49:23;;;;;;;;;;;;;;;;;;2118535;28;1226;-77
2021/07/18 08:50:24;;;;;;;;;;;;;;;;;;2119300;27;1232;-77
2021/07/18 08:51:25;;;;;;;;;;;;;;;;;;2117748;28;1283;-76
2021/07/18 08:52:26;;;;;;;;;;;;;;;;;;2119130;28;1279;-76
2021/07/18 08:53:28;;;;;;;;;;;;;;;;;;2117838;28;1299;-76
2021/07/18 08:54:29;;;;;;;;;;;;;;;;;;2118490;28;1239;-76
2021/07/18 08:55:31;;;;;;;;;;;;;;;;;;2118277;28;1280;-76
2021/07/18 08:56:32;;;;;;;;;;;;;;;;;;2118265;28;1228;-76
2021/07/18 08:57:34;;;;;;;;;;;;;;;;;;2118753;28;1280;-76
2021/07/18 08:58:35;;;;;;;;;;;;;;;;;;2122789;28;988;-77
2021/07/18 08:59:36;;;;;;;;;;;;;;;;;;2122602;27;1913;-76
2021/07/18 09:00:37;;;;;;;;;;;;;;;;;;2122937;28;822;-76
2021/07/18 09:01:42;;;;;;;;;;;;;;;;;;2122910;28;912;-76
2021/07/18 09:02:43;;;;;;;;;;;;;;;;;;2122749;28;952;-77
2021/07/18 09:03:44;;;;;;;;;;;;;;;;;;2122916;28;797;-76
2021/07/18 09:04:45;;;;;;;;;;;;;;;;;;2122712;28;1200;-76
2021/07/18 09:05:47;;;;;;;;;;;;;;;;;;2122191;28;1196;-76
2021/07/18 09:06:48;;;;;;;;;;;;;;;;;;2121979;28;912;-76
2021/07/18 09:07:51;;;;;;;;;;;;;;;;;;2122717;27;1142;-76
2021/07/18 09:08:51;;;;;;;;;;;;;;;;;;2122077;28;1318;-76
2021/07/18 09:10:01;;;;;;;;;;;;;;;;;;2122224;28;865;-76
2021/07/18 09:11:03;;;;;;;;;;;;;;;;;;2120024;27;1130;-76
2021/07/18 09:12:06;;;;;;;;;;;;;;;;;;2112216;28;1240;-76
2021/07/18 09:13:08;;;;;;;;;;;;;;;;;;2113398;28;1324;-76
2021/07/18 09:14:11;;;;;;;;;;;;;;;;;;2112542;28;1295;-76
2021/07/18 09:15:12;;;;;;;;;;;;;;;;;;2115230;28;1355;-76
2021/07/18 09:16:15;;;;;;;;;;;;;;;;;;2111662;28;1232;-76
2021/07/18 09:17:19;;;;;;;;;;;;;;;;;;2116430;28;1228;-77
2021/07/18 09:18:20;;;;;;;;;;;;;;;;;;2116138;28;1332;-77
2021/07/18 09:19:23;;;;;;;;;;;;;;;;;;2116474;28;885;-76
2021/07/18 09:20:24;;;;;;;;;;;;;;;;;;2116974;28;1969;-76
2021/07/18 09:21:26;;;;;;;;;;;;;;;;;;2117017;28;933;-76
2021/07/18 09:22:26;;;;;;;;;;;;;;;;;;2116264;28;1588;-76
2021/07/18 09:23:30;;;;;;;;;;;;;;;;;;2116446;28;874;-76
2021/07/18 09:24:31;;;;;;;;;;;;;;;;;;2117084;28;1199;-76
2021/07/18 09:25:33;;;;;;;;;;;;;;;;;;2117192;28;1096;-76
2021/07/18 09:26:33;;;;;;;;;;;;;;;;;;2117140;28;934;-76
2021/07/18 09:27:35;;;;;;;;;;;;;;;;;;2117219;28;1056;-76
2021/07/18 09:28:35;;;;;;;;;;;;;;;;;;2116991;28;874;-77
2021/07/18 09:29:37;;;;;;;;;;;;;;;;;;2117102;28;1159;-77
2021/07/18 09:30:38;;;;;;;;;;;;;;;;;;2116331;28;1146;-78
2021/07/18 09:31:39;;;;;;;;;;;;;;;;;;2116543;28;786;-76
2021/07/18 09:32:43;;;;;;;;;;;;;;;;;;2117006;28;893;-75
2021/07/18 09:33:43;;;;;;;;;;;;;;;;;;2116692;28;823;-76
2021/07/18 09:34:46;;;;;;;;;;;;;;;;;;2116180;28;1391;-76
2021/07/18 09:35:46;;;;;;;;;;;;;;;;;;2116419;28;960;-76
2021/07/18 09:36:48;;;;;;;;;;;;;;;;;;2117000;28;826;-76
2021/07/18 09:37:50;;;;;;;;;;;;;;;;;;2116958;28;882;-76
2021/07/18 09:39:03;;;;;;;;;;;;;;;;;;2117023;28;932;-77
2021/07/18 09:40:06;;;;;;;;;;;;;;;;;;2116967;28;1905;-77
2021/07/18 09:41:06;;;;;;;;;;;;;;;;;;2116212;28;1326;-76
2021/07/18 09:42:07;;;;;;;;;;;;;;;;;;2116391;28;933;-76
2021/07/18 09:43:09;;;;;;;;;;;;;;;;;;2116900;27;1048;-75
2021/07/18 09:44:09;;;;;;;;;;;;;;;;;;2116966;28;865;-76
2021/07/18 09:45:15;;;;;;;;;;;;;;;;;;2116610;28;1221;-76
2021/07/18 09:46:29;;;;;;;;;;;;;;;;;;2116869;28;906;-76
2021/07/18 09:47:30;;;;;;;;;;;;;;;;;;2116558;28;873;-76
2021/07/18 09:48:38;;;;;;;;;;;;;;;;;;2116800;28;830;-76
2021/07/18 09:49:40;;;;;;;;;;;;;;;;;;2116908;28;852;-77
2021/07/18 09:50:41;;;;;;;;;;;;;;;;;;2116932;27;956;-76
2021/07/18 09:51:43;;;;;;;;;;;;;;;;;;2116711;27;983;-76
2021/07/18 09:52:48;;;;;;;;;;;;;;;;;;2116688;28;806;-76
2021/07/18 09:54:07;;;;;;;;;;;;;;;;;;2116824;28;1114;-76
2021/07/18 09:55:18;;;;;;;;;;;;;;;;;;2116642;28;1271;-76
2021/07/18 09:56:22;;;;;;;;;;;;;;;;;;2116586;28;1120;-76
2021/07/18 09:57:33;;;;;;;;;;;;;;;;;;2116789;28;679;-76
2021/07/18 09:58:35;;;;;;;;;;;;;;;;;;2116599;27;874;-78
2021/07/18 09:59:36;;;;;;;;;;;;;;;;;;2116604;28;1127;-76
2021/07/18 10:00:39;;;;;;;;;;;;;;;;;;2116575;28;1974;-78
2021/07/18 10:01:40;;;;;;;;;;;;;;;;;;2116541;28;1109;-76
2021/07/18 10:02:42;;;;;;;;;;;;;;;;;;2116575;28;953;-76
2021/07/18 10:03:46;;;;;;;;;;;;;;;;;;2116663;28;965;-76
2021/07/18 10:04:47;;;;;;;;;;;;;;;;;;2116456;28;1344;-76
2021/07/18 10:06:03;;;;;;;;;;;;;;;;;;2116637;28;1001;-76
2021/07/18 10:07:05;;;;;;;;;;;;;;;;;;2116534;28;1034;-76
2021/07/18 10:08:07;;;;;;;;;;;;;;;;;;2116640;28;878;-76
2021/07/18 10:09:09;;;;;;;;;;;;;;;;;;2116465;28;890;-76
2021/07/18 10:10:12;;;;;;;;;;;;;;;;;;2116707;28;901;-76
2021/07/18 10:11:13;;;;;;;;;;;;;;;;;;2116712;28;1131;-76
2021/07/18 10:12:15;;;;;;;;;;;;;;;;;;2116848;28;886;-76
2021/07/18 10:13:16;;;;;;;;;;;;;;;;;;2116713;28;846;-76
2021/07/18 10:14:17;;;;;;;;;;;;;;;;;;2115994;28;691;-76
2021/07/18 10:15:18;;;;;;;;;;;;;;;;;;2116006;28;1398;-76
2021/07/18 10:16:20;;;;;;;;;;;;;;;;;;2116612;28;882;-76
2021/07/18 10:17:21;;;;;;;;;;;;;;;;;;2116645;28;1080;-76
2021/07/18 10:18:23;;;;;;;;;;;;;;;;;;2116716;28;993;-76
2021/07/18 10:19:25;;;;;;;;;;;;;;;;;;2115633;28;1159;-76
2021/07/18 10:20:27;;;;;;;;;;;;;;;;;;2115869;28;1905;-76
2021/07/18 10:21:29;;;;;;;;;;;;;;;;;;2116519;28;886;-76
2021/07/18 10:22:31;;;;;;;;;;;;;;;;;;2115378;28;1324;-76
2021/07/18 10:23:33;;;;;;;;;;;;;;;;;;2106727;28;1303;-76
2021/07/18 10:24:35;;;;;;;;;;;;;;;;;;2115945;28;1329;-76
2021/07/18 10:25:36;;;;;;;;;;;;;;;;;;2116603;28;878;-76
2021/07/18 10:26:39;;;;;;;;;;;;;;;;;;2116690;28;869;-76
2021/07/18 10:27:40;;;;;;;;;;;;;;;;;;2116597;28;872;-76
2021/07/18 10:28:42;;;;;;;;;;;;;;;;;;2116296;28;869;-76
2021/07/18 10:29:43;;;;;;;;;;;;;;;;;;2116521;28;807;-76
2021/07/18 10:30:48;;;;;;;;;;;;;;;;;;2116412;28;929;-76
2021/07/18 10:31:49;;;;;;;;;;;;;;;;;;2116456;28;933;-76
2021/07/18 10:32:52;;;;;;;;;;;;;;;;;;2116388;28;881;-76
2021/07/18 10:33:54;;;;;;;;;;;;;;;;;;2116352;28;779;-76
2021/07/18 10:34:59;;;;;;;;;;;;;;;;;;2111540;28;1230;-76
2021/07/18 10:36:01;;;;;;;;;;;;;;;;;;2112492;28;1107;-76
2021/07/18 10:37:08;;;;;;;;;;;;;;;;;;2116178;27;1079;-76
2021/07/18 10:38:17;;;;;;;;;;;;;;;;;;2115607;28;1245;-76
2021/07/18 10:39:28;;;;;;;;;;;;;;;;;;2116376;28;1132;-77
2021/07/18 10:40:30;;;;;;;;;;;;;;;;;;2115521;28;1965;-77
2021/07/18 10:41:40;;;;;;;;;;;;;;;;;;2115712;28;853;-77
2021/07/18 10:42:42;;;;;;;;;;;;;;;;;;2116309;28;786;-76
2021/07/18 10:43:45;;;;;;;;;;;;;;;;;;2116494;28;886;-77
2021/07/18 10:44:48;;;;;;;;;;;;;;;;;;2116496;28;1224;-77
2021/07/18 10:45:50;;;;;;;;;;;;;;;;;;2115780;28;683;-77
2021/07/18 10:46:53;;;;;;;;;;;;;;;;;;2115927;28;862;-76
2021/07/18 10:48:52;;;;;;;;;;;;;;;;;;2135907;27;1391;-94
2021/07/18 10:49:54;;;;;;;;;;;;;;;;;;2137031;27;1197;-94
2021/07/18 10:50:59;;;;;;;;;;;;;;;;;;2131305;27;1163;-93
2021/07/18 10:52:00;;;;;;;;;;;;;;;;;;2133338;27;1367;-94
2021/07/18 10:53:15;;;;;;;;;;;;;;;;;;2126592;27;1225;-93
2021/07/18 10:54:17;;;;;;;;;;;;;;;;;;2129595;27;1302;-93
2021/07/18 10:55:25;;;;;;;;;;;;;;;;;;2118627;27;1268;-93
2021/07/18 10:57:59;;;;;;;;;;;;;;;;;;2128560;28;1407;-91
2021/07/18 10:58:59;;;;;;;;;;;;;;;;;;2123429;28;1100;-93
2021/07/18 11:00:35;;;;;;;;;;;;;;;;;;2122472;28;1500;-93
2021/07/18 11:02:37;;;;;;;;;;;;;;;;;;2126438;22;1879;-84
2021/07/18 11:03:39;;;;;;;;;;;;;;;;;;2113723;28;1189;-95
2021/07/18 11:04:43;;;;;;;;;;;;;;;;;;2108331;28;1224;-79
2021/07/18 11:05:44;;;;;;;;;;;;;;;;;;2106295;28;791;-81
2021/07/18 11:06:47;;;;;;;;;;;;;;;;;;2106158;28;870;-80
2021/07/18 11:07:56;;;;;;;;;;;;;;;;;;2106124;28;1969;-83
2021/07/18 11:09:17;;;;;;;;;;;;;;;;;;2106229;28;918;-84
2021/07/18 11:10:20;;;;;;;;;;;;;;;;;;2105436;28;1202;-82
2021/07/18 11:11:35;;;;;;;;;;;;;;;;;;2097359;28;1204;-82
2021/07/18 11:12:37;;;;;;;;;;;;;;;;;;2099614;28;1297;-82
2021/07/18 11:13:39;;;;;;;;;;;;;;;;;;2105789;28;827;-83
2021/07/18 11:14:40;;;;;;;;;;;;;;;;;;2106367;28;1309;-89
2021/07/18 11:15:42;;;;;;;;;;;;;;;;;;2105643;28;1287;-84
2021/07/18 11:16:47;;;;;;;;;;;;;;;;;;2095819;28;1954;-83
2021/07/18 11:17:58;;;;;;;;;;;;;;;;;;2105575;28;858;-82
2021/07/18 11:19:00;;;;;;;;;;;;;;;;;;2106227;28;901;-81
2021/07/18 11:20:03;;;;;;;;;;;;;;;;;;2106174;28;933;-81
2021/07/18 11:21:06;;;;;;;;;;;;;;;;;;2105662;28;1295;-87
2021/07/18 11:22:08;;;;;;;;;;;;;;;;;;2097379;28;1151;-86
2021/07/18 11:23:10;;;;;;;;;;;;;;;;;;2089415;28;1187;-87
2021/07/18 11:24:10;;;;;;;;;;;;;;;;;;2097786;28;1317;-87
2021/07/18 11:25:12;;;;;;;;;;;;;;;;;;2100300;28;1372;-88
2021/07/18 11:26:16;;;;;;;;;;;;;;;;;;2121349;28;1363;-88
2021/07/18 11:27:23;;;;;;;;;;;;;;;;;;2112951;28;1293;-88
2021/07/18 11:28:39;;;;;;;;;;;;;;;;;;2091820;28;1973;-88
2021/07/18 11:29:40;;;;;;;;;;;;;;;;;;2091146;28;1323;-87
2021/07/18 11:30:41;;;;;;;;;;;;;;;;;;2097580;28;1262;-87
2021/07/18 11:31:44;;;;;;;;;;;;;;;;;;2102979;28;1309;-87
2021/07/18 11:32:45;;;;;;;;;;;;;;;;;;2102302;28;1207;-87
2021/07/18 11:33:52;;;;;;;;;;;;;;;;;;2091634;28;1295;-88
2021/07/18 11:34:55;;;;;;;;;;;;;;;;;;2094627;28;1397;-88
2021/07/18 11:35:57;;;;;;;;;;;;;;;;;;2090805;28;1447;-87
2021/07/18 11:37:02;;;;;;;;;;;;;;;;;;2081121;28;1325;-87
2021/07/18 11:38:04;;;;;;;;;;;;;;;;;;2082663;28;1190;-88
2021/07/18 11:39:11;;;;;;;;;;;;;;;;;;2089750;28;1339;-87
2021/07/18 11:40:12;;;;;;;;;;;;;;;;;;2092238;28;1274;-88
2021/07/18 11:41:15;;;;;;;;;;;;;;;;;;2097559;28;1293;-86
2021/07/18 11:42:18;;;;;;;;;;;;;;;;;;2090058;28;1201;-89
2021/07/18 11:43:18;;;;;;;;;;;;;;;;;;2089657;28;1301;-89
2021/07/18 11:44:23;;;;;;;;;;;;;;;;;;2097728;28;1199;-87
2021/07/18 11:45:32;;;;;;;;;;;;;;;;;;2098229;28;1303;-90
2021/07/18 11:46:33;;;;;;;;;;;;;;;;;;2092144;28;1396;-89
2021/07/18 11:47:35;;;;;;;;;;;;;;;;;;2098114;28;866;-87
2021/07/18 11:48:35;;;;;;;;;;;;;;;;;;2097445;28;1961;-89
2021/07/18 11:49:39;;;;;;;;;;;;;;;;;;2089481;28;1273;-91
2021/07/18 11:50:39;;;;;;;;;;;;;;;;;;2089713;28;1196;-87
2021/07/18 11:51:46;;;;;;;;;;;;;;;;;;2090145;28;1268;-93
2021/07/18 11:52:48;;;;;;;;;;;;;;;;;;2097780;28;1344;-91
2021/07/18 11:53:50;;;;;;;;;;;;;;;;;;2097286;28;1319;-92
2021/07/18 11:54:53;;;;;;;;;;;;;;;;;;2081309;28;1427;-96
2021/07/18 11:55:54;;;;;;;;;;;;;;;;;;2083960;28;1281;-95
2021/07/18 11:56:54;;;;;;;;;;;;;;;;;;2099019;28;1203;-94
2021/07/18 11:57:56;;;;;;;;;;;;;;;;;;2091047;28;1272;-90
2021/07/18 11:58:58;;;;;;;;;;;;;;;;;;2099123;28;1971;-95
2021/07/18 12:00:00;;;;;;;;;;;;;;;;;;2096559;28;1255;-95
2021/07/18 12:01:01;;;;;;;;;;;;;;;;;;2094719;28;1245;-96
2021/07/18 12:02:03;;;;;;;;;;;;;;;;;;2095911;28;1434;-96
2021/07/18 12:03:04;;;;;;;;;;;;;;;;;;2093154;28;1175;-95
2021/07/18 12:04:05;;;;;;;;;;;;;;;;;;2100880;28;1229;-95
2021/07/18 12:05:07;;;;;;;;;;;;;;;;;;2092293;28;1267;-96
2021/07/18 12:06:08;;;;;;;;;;;;;;;;;;2093530;28;1268;-96
2021/07/18 12:07:17;;;;;;;;;;;;;;;;;;2094380;28;1270;-95
2021/07/18 12:08:19;;;;;;;;;;;;;;;;;;2095136;28;1905;-96
2021/07/18 12:09:20;;;;;;;;;;;;;;;;;;2094943;28;1180;-95
2021/07/18 12:10:22;;;;;;;;;;;;;;;;;;2092302;28;1238;-96
2021/07/18 12:11:23;;;;;;;;;;;;;;;;;;2092402;28;1172;-96
2021/07/18 12:12:24;;;;;;;;;;;;;;;;;;2093069;28;1319;-94
2021/07/18 12:13:32;;;;;;;;;;;;;;;;;;2092850;28;1215;-96
2021/07/18 12:14:34;;;;;;;;;;;;;;;;;;2095680;28;1292;-96
2021/07/18 12:15:34;;;;;;;;;;;;;;;;;;2096730;28;1178;-95
2021/07/18 12:16:37;;;;;;;;;;;;;;;;;;2092631;28;1227;-95
2021/07/18 12:17:39;;;;;;;;;;;;;;;;;;2093008;28;1318;-94
2021/07/18 12:18:46;;;;;;;;;;;;;;;;;;2092833;28;1348;-96
2021/07/18 12:19:52;;;;;;;;;;;;;;;;;;2095249;28;1287;-95
2021/07/18 12:21:13;;;;;;;;;;;;;;;;;;2094342;28;1148;-94
2021/07/18 12:22:25;;;;;;;;;;;;;;;;;;2096338;28;1194;-96
2021/07/18 12:23:25;;;;;;;;;;;;;;;;;;2095116;28;1330;-95
2021/07/18 12:24:28;;;;;;;;;;;;;;;;;;2094532;28;1247;-96
2021/07/18 12:25:29;;;;;;;;;;;;;;;;;;2095403;28;1298;-95
2021/07/18 12:26:29;;;;;;;;;;;;;;;;;;2092874;28;1313;-94
2021/07/18 12:27:31;;;;;;;;;;;;;;;;;;2091888;28;1286;-94
2021/07/18 12:28:32;;;;;;;;;;;;;;;;;;2091980;28;1964;-94
2021/07/18 12:29:34;;;;;;;;;;;;;;;;;;2091963;28;1169;-93
2021/07/18 12:30:35;;;;;;;;;;;;;;;;;;2092095;28;1170;-94
2021/07/18 12:31:38;;;;;;;;;;;;;;;;;;2092491;28;1369;-94
2021/07/18 12:32:40;;;;;;;;;;;;;;;;;;2093226;28;1191;-94
2021/07/18 12:33:40;;;;;;;;;;;;;;;;;;2093637;28;1302;-95
2021/07/18 12:34:43;;;;;;;;;;;;;;;;;;2091926;28;1280;-94
2021/07/18 12:35:44;;;;;;;;;;;;;;;;;;2092379;28;1179;-94
2021/07/18 12:36:52;;;;;;;;;;;;;;;;;;2092051;28;1268;-96
2021/07/18 12:37:55;;;;;;;;;;;;;;;;;;2093380;28;1156;-95
2021/07/18 12:39:12;;;;;;;;;;;;;;;;;;2092066;28;1283;-96
2021/07/18 12:40:14;;;;;;;;;;;;;;;;;;2095904;28;1217;-94
2021/07/18 12:41:15;;;;;;;;;;;;;;;;;;2093232;28;1232;-94
2021/07/18 12:42:20;;;;;;;;;;;;;;;;;;2092230;28;1182;-96
2021/07/18 12:43:21;;;;;;;;;;;;;;;;;;2100167;28;1165;-94
2021/07/18 12:44:22;;;;;;;;;;;;;;;;;;2092110;28;1215;-95
2021/07/18 12:45:24;;;;;;;;;;;;;;;;;;2091898;28;1223;-95
2021/07/18 12:46:25;;;;;;;;;;;;;;;;;;2092441;28;1306;-95
2021/07/18 12:47:28;;;;;;;;;;;;;;;;;;2101829;28;1195;-93
2021/07/18 12:48:28;;;;;;;;;;;;;;;;;;2093459;28;1918;-93
2021/07/18 12:49:30;;;;;;;;;;;;;;;;;;2092032;28;1274;-93
2021/07/18 12:50:33;;;;;;;;;;;;;;;;;;2092833;28;1253;-92
2021/07/18 12:51:33;;;;;;;;;;;;;;;;;;2091941;28;1322;-94
2021/07/18 12:52:34;;;;;;;;;;;;;;;;;;2091779;28;1268;-94
2021/07/18 12:53:37;;;;;;;;;;;;;;;;;;2091901;28;1262;-94
2021/07/18 12:54:39;;;;;;;;;;;;;;;;;;2092457;28;1258;-94
2021/07/18 12:55:42;;;;;;;;;;;;;;;;;;2091812;28;1148;-96
2021/07/18 12:56:53;;;;;;;;;;;;;;;;;;2093119;28;1241;-96
2021/07/18 12:57:53;;;;;;;;;;;;;;;;;;2095335;28;1210;-96
2021/07/18 12:58:55;;;;;;;;;;;;;;;;;;2093241;28;1210;-96
2021/07/18 13:00:00;;;;;;;;;;;;;;;;;;2092439;28;1241;-96
2021/07/18 13:01:03;;;;;;;;;;;;;;;;;;2093783;28;1279;-96
2021/07/18 13:02:13;;;;;;;;;;;;;;;;;;2096326;28;1256;-96
2021/07/18 13:03:16;;;;;;;;;;;;;;;;;;2095735;28;1422;-96
2021/07/18 13:04:22;;;;;;;;;;;;;;;;;;2097387;28;1278;-96
2021/07/18 13:05:43;;;;;;;;;;;;;;;;;;2105144;28;1182;-90
2021/07/18 13:06:46;;;;;;;;;;;;;;;;;;2102478;28;1400;-94
2021/07/18 13:07:46;;;;;;;;;;;;;;;;;;2092299;28;1201;-95
2021/07/18 13:08:51;;;;;;;;;;;;;;;;;;2093668;28;1913;-95
2021/07/18 13:11:29;;;;;;;;;;;;;;;;;;2132804;27;1407;-91
2021/07/18 13:12:29;;;;;;;;;;;;;;;;;;2132488;27;945;-94
2021/07/18 13:13:32;;;;;;;;;;;;;;;;;;2131929;27;1190;-90
2021/07/18 13:14:34;;;;;;;;;;;;;;;;;;2113585;28;1322;-88
2021/07/18 13:15:36;;;;;;;;;;;;;;;;;;2115480;28;1185;-90
2021/07/18 13:16:36;;;;;;;;;;;;;;;;;;2114841;28;1340;-92
2021/07/18 13:17:48;;;;;;;;;;;;;;;;;;2114906;28;1151;-91
2021/07/18 13:18:49;;;;;;;;;;;;;;;;;;2116401;28;1167;-93
2021/07/18 13:19:57;;;;;;;;;;;;;;;;;;2123133;28;1315;-84
2021/07/18 13:21:08;;;;;;;;;;;;;;;;;;2122723;28;1248;-84
2021/07/18 13:22:10;;;;;;;;;;;;;;;;;;2123233;28;1245;-91
2021/07/18 13:23:11;;;;;;;;;;;;;;;;;;2122801;28;1258;-82
2021/07/18 13:24:28;;;;;;;;;;;;;;;;;;2123129;28;838;-90
2021/07/18 13:25:31;;;;;;;;;;;;;;;;;;2114156;28;1405;-85
2021/07/18 13:26:35;;;;;;;;;;;;;;;;;;2106346;28;1262;-89
2021/07/18 13:27:38;;;;;;;;;;;;;;;;;;2115246;28;1152;-89
2021/07/18 13:28:39;;;;;;;;;;;;;;;;;;2116837;28;1152;-89
2021/07/18 13:29:43;;;;;;;;;;;;;;;;;;2115017;28;1356;-96
2021/07/18 13:30:43;;;;;;;;;;;;;;;;;;2115279;28;1975;-95
2021/07/18 13:31:46;;;;;;;;;;;;;;;;;;2123591;28;1132;-95
2021/07/18 13:32:47;;;;;;;;;;;;;;;;;;2115185;28;1258;-92
2021/07/18 13:33:49;;;;;;;;;;;;;;;;;;2123705;28;1319;-94
2021/07/18 13:34:54;;;;;;;;;;;;;;;;;;2123042;27;1219;-93
2021/07/18 13:35:56;;;;;;;;;;;;;;;;;;2123502;28;1277;-95
2021/07/18 13:36:56;;;;;;;;;;;;;;;;;;2114920;28;1274;-95
2021/07/18 13:37:59;;;;;;;;;;;;;;;;;;2115077;28;1205;-95
2021/07/18 13:39:08;;;;;;;;;;;;;;;;;;2115193;28;1178;-96
2021/07/18 13:40:22;;;;;;;;;;;;;;;;;;2114795;28;1168;-95
2021/07/18 13:41:24;;;;;;;;;;;;;;;;;;2108533;28;1301;-96
2021/07/18 13:42:33;;;;;;;;;;;;;;;;;;2106687;28;1389;-96
2021/07/18 13:43:35;;;;;;;;;;;;;;;;;;2107893;28;1380;-90
2021/07/18 13:44:36;;;;;;;;;;;;;;;;;;2106512;28;1327;-95
2021/07/18 13:45:39;;;;;;;;;;;;;;;;;;2106783;28;1414;-94
2021/07/18 13:46:40;;;;;;;;;;;;;;;;;;2115005;28;853;-89
2021/07/18 13:47:42;;;;;;;;;;;;;;;;;;2114168;28;1180;-89
2021/07/18 13:48:42;;;;;;;;;;;;;;;;;;2114638;28;1192;-90
2021/07/18 13:49:44;;;;;;;;;;;;;;;;;;2114212;28;1214;-91
2021/07/18 13:50:45;;;;;;;;;;;;;;;;;;2114654;28;1917;-91
2021/07/18 13:51:52;;;;;;;;;;;;;;;;;;2115255;27;905;-92
2021/07/18 13:52:53;;;;;;;;;;;;;;;;;;2114673;28;1242;-92
2021/07/18 13:53:54;;;;;;;;;;;;;;;;;;2106311;28;1182;-92
2021/07/18 13:54:55;;;;;;;;;;;;;;;;;;2114391;28;1313;-90
2021/07/18 13:55:57;;;;;;;;;;;;;;;;;;2114374;28;1399;-84
2021/07/18 13:56:57;;;;;;;;;;;;;;;;;;2106158;28;1277;-90
2021/07/18 13:58:00;;;;;;;;;;;;;;;;;;2105713;28;1216;-90
2021/07/18 13:59:01;;;;;;;;;;;;;;;;;;2106188;28;1211;-90
2021/07/18 14:00:04;;;;;;;;;;;;;;;;;;2106165;28;1350;-90
2021/07/18 14:01:06;;;;;;;;;;;;;;;;;;2114676;28;672;-88
2021/07/18 14:02:07;;;;;;;;;;;;;;;;;;2114616;28;1203;-89
2021/07/18 14:03:09;;;;;;;;;;;;;;;;;;2114713;28;906;-88
2021/07/18 14:04:10;;;;;;;;;;;;;;;;;;2115220;28;711;-89
2021/07/18 14:05:11;;;;;;;;;;;;;;;;;;2115047;28;1352;-89
2021/07/18 14:06:12;;;;;;;;;;;;;;;;;;2114304;28;1305;-89
2021/07/18 14:07:14;;;;;;;;;;;;;;;;;;2114315;28;917;-81
2021/07/18 14:08:14;;;;;;;;;;;;;;;;;;2114041;28;1343;-83
2021/07/18 14:09:17;;;;;;;;;;;;;;;;;;2105950;28;1304;-86
2021/07/18 14:10:17;;;;;;;;;;;;;;;;;;2106035;28;1266;-87
2021/07/18 14:11:19;;;;;;;;;;;;;;;;;;2114413;28;1890;-87
2021/07/18 14:12:19;;;;;;;;;;;;;;;;;;2106052;28;1172;-87
2021/07/18 14:13:22;;;;;;;;;;;;;;;;;;2106121;28;1253;-90
2021/07/18 14:14:23;;;;;;;;;;;;;;;;;;2114613;28;1291;-89
2021/07/18 14:15:25;;;;;;;;;;;;;;;;;;2106333;28;1203;-89
2021/07/18 14:16:25;;;;;;;;;;;;;;;;;;2114313;28;1250;-89
2021/07/18 14:17:27;;;;;;;;;;;;;;;;;;2105915;28;1191;-89
2021/07/18 14:18:29;;;;;;;;;;;;;;;;;;2114687;28;802;-89
2021/07/18 14:19:29;;;;;;;;;;;;;;;;;;2114862;28;1276;-89
2021/07/18 14:20:31;;;;;;;;;;;;;;;;;;2114461;28;1197;-89
2021/07/18 14:21:32;;;;;;;;;;;;;;;;;;2105539;28;1255;-90
2021/07/18 14:22:34;;;;;;;;;;;;;;;;;;2100028;28;1360;-90
2021/07/18 14:23:35;;;;;;;;;;;;;;;;;;2092134;28;1184;-89
2021/07/18 14:24:36;;;;;;;;;;;;;;;;;;2091916;28;1312;-91
2021/07/18 14:25:38;;;;;;;;;;;;;;;;;;2100221;28;1189;-92
2021/07/18 14:26:39;;;;;;;;;;;;;;;;;;2108623;28;1159;-91
2021/07/18 14:27:41;;;;;;;;;;;;;;;;;;2100215;28;1183;-91
2021/07/18 14:28:43;;;;;;;;;;;;;;;;;;2100647;28;1215;-90
2021/07/18 14:29:45;;;;;;;;;;;;;;;;;;2109081;28;847;-92
2021/07/18 14:30:46;;;;;;;;;;;;;;;;;;2108741;28;1973;-91
2021/07/18 14:31:47;;;;;;;;;;;;;;;;;;2100483;28;1155;-91
2021/07/18 14:32:50;;;;;;;;;;;;;;;;;;2100484;28;1190;-90
2021/07/18 14:33:50;;;;;;;;;;;;;;;;;;2100691;28;1183;-90
2021/07/18 14:34:52;;;;;;;;;;;;;;;;;;2100419;28;1266;-90
2021/07/18 14:35:53;;;;;;;;;;;;;;;;;;2100594;28;1197;-90
2021/07/18 14:36:55;;;;;;;;;;;;;;;;;;2100421;28;1512;-89
2021/07/18 14:37:55;;;;;;;;;;;;;;;;;;2100136;28;1184;-94
2021/07/18 14:38:57;;;;;;;;;;;;;;;;;;2100606;28;1282;-92
2021/07/18 14:39:58;;;;;;;;;;;;;;;;;;2108809;28;779;-94
2021/07/18 14:40:59;;;;;;;;;;;;;;;;;;2108837;28;1273;-93
2021/07/18 14:42:00;;;;;;;;;;;;;;;;;;2100490;28;1183;-92
2021/07/18 14:43:02;;;;;;;;;;;;;;;;;;2100377;28;1166;-89
2021/07/18 14:44:04;;;;;;;;;;;;;;;;;;2102904;28;1791;-90
2021/07/18 14:45:06;;;;;;;;;;;;;;;;;;2107959;28;1949;-90
2021/07/18 14:46:08;;;;;;;;;;;;;;;;;;2100127;28;1349;-90
2021/07/18 14:47:08;;;;;;;;;;;;;;;;;;2099510;28;1151;-79
2021/07/18 14:48:10;;;;;;;;;;;;;;;;;;2116299;28;924;-79
2021/07/18 14:49:10;;;;;;;;;;;;;;;;;;2116874;28;806;-79
2021/07/18 14:50:13;;;;;;;;;;;;;;;;;;2117603;28;896;-92
2021/07/18 14:51:14;;;;;;;;;;;;;;;;;;2108763;28;1913;-94
2021/07/18 14:52:15;;;;;;;;;;;;;;;;;;2108631;28;1226;-94
2021/07/18 14:53:25;;;;;;;;;;;;;;;;;;2111299;28;1079;-95
2021/07/18 14:54:27;;;;;;;;;;;;;;;;;;2110144;28;1321;-79
2021/07/18 14:55:28;;;;;;;;;;;;;;;;;;2116286;28;925;-78
2021/07/18 14:56:29;;;;;;;;;;;;;;;;;;2116810;28;921;-79
2021/07/18 14:57:30;;;;;;;;;;;;;;;;;;2116733;28;1155;-77
2021/07/18 14:58:32;;;;;;;;;;;;;;;;;;2117573;28;1003;-92
2021/07/18 14:59:34;;;;;;;;;;;;;;;;;;2116900;28;1176;-91
2021/07/18 15:00:36;;;;;;;;;;;;;;;;;;2117008;28;1237;-90
2021/07/18 15:01:36;;;;;;;;;;;;;;;;;;2108549;28;1163;-89
2021/07/18 15:02:38;;;;;;;;;;;;;;;;;;2108518;28;1171;-90
2021/07/18 15:03:39;;;;;;;;;;;;;;;;;;2109631;28;1179;-91
2021/07/18 15:04:40;;;;;;;;;;;;;;;;;;2108556;28;1297;-90
2021/07/18 15:05:41;;;;;;;;;;;;;;;;;;2117223;28;1029;-91
2021/07/18 15:06:43;;;;;;;;;;;;;;;;;;2116976;28;1202;-91
2021/07/18 15:07:44;;;;;;;;;;;;;;;;;;2108847;28;1263;-89
2021/07/18 15:08:45;;;;;;;;;;;;;;;;;;2117620;28;1327;-90
2021/07/18 15:09:46;;;;;;;;;;;;;;;;;;2108781;28;1129;-88
2021/07/18 15:10:54;;;;;;;;;;;;;;;;;;2116743;28;1910;-89
2021/07/18 15:11:57;;;;;;;;;;;;;;;;;;2117398;28;1297;-92
2021/07/18 15:12:59;;;;;;;;;;;;;;;;;;2110482;28;1423;-93
2021/07/18 15:13:59;;;;;;;;;;;;;;;;;;2117256;28;1353;-89
2021/07/18 15:15:03;;;;;;;;;;;;;;;;;;2108205;28;1324;-89
2021/07/18 15:16:03;;;;;;;;;;;;;;;;;;2108554;28;1403;-90
2021/07/18 15:17:05;;;;;;;;;;;;;;;;;;2108510;28;1153;-89
2021/07/18 15:18:07;;;;;;;;;;;;;;;;;;2108289;28;1179;-89
2021/07/18 15:19:07;;;;;;;;;;;;;;;;;;2108173;28;1237;-89
2021/07/18 15:20:10;;;;;;;;;;;;;;;;;;2108590;28;1196;-89
2021/07/18 15:21:11;;;;;;;;;;;;;;;;;;2108677;28;1257;-90
2021/07/18 15:22:13;;;;;;;;;;;;;;;;;;2108493;28;1206;-92
2021/07/18 15:23:13;;;;;;;;;;;;;;;;;;2108690;28;1092;-91